createdAt,value
2023-04-22T00:00:43.165Z,2.30
2023-04-22T00:03:11.952Z,3.42
2023-04-22T00:05:40.483Z,5.95
2023-04-22T00:08:09.298Z,4.55
2023-04-22T00:10:37.717Z,3.45
2023-04-22T00:13:05.627Z,4.85
2023-04-22T00:15:33.698Z,2.70
2023-04-22T00:18:02.058Z,4.97
2023-04-22T00:20:32.636Z,4.28
2023-04-22T00:23:00.640Z,3.55
2023-04-22T00:25:28.897Z,4.05
2023-04-22T00:27:56.806Z,4.85
2023-04-22T00:30:24.828Z,4.07
2023-04-22T00:32:53.749Z,3.97
2023-04-22T00:35:21.736Z,4.22
2023-04-22T00:37:49.730Z,2.65
2023-04-22T00:40:18.045Z,3.97
2023-04-22T00:42:49.377Z,4.97
2023-04-22T00:45:20.105Z,4.37
2023-04-22T00:47:49.390Z,3.97
2023-04-22T00:50:17.875Z,4.32
2023-04-22T00:52:45.815Z,2.97
2023-04-22T00:55:13.724Z,3.40
2023-04-22T00:57:42.790Z,5.28
2023-04-22T01:00:12.068Z,4.78
2023-04-22T01:02:40.541Z,4.15
2023-04-22T01:05:10.057Z,3.17
2023-04-22T01:07:38.454Z,6.00
2023-04-22T01:10:07.018Z,4.43
2023-04-22T01:12:35.278Z,4.15
2023-04-22T01:15:05.086Z,4.87
2023-04-22T01:17:34.215Z,3.65
2023-04-22T01:20:04.721Z,3.40
2023-04-22T01:22:37.655Z,4.47
2023-04-22T01:25:07.872Z,4.10
2023-04-22T01:27:36.526Z,2.92
2023-04-22T01:30:09.262Z,4.78
2023-04-22T01:32:41.183Z,6.25
2023-04-22T01:35:10.493Z,6.47
2023-04-22T01:37:39.801Z,6.43
2023-04-22T01:40:10.092Z,5.20
2023-04-22T01:42:39.364Z,4.05
2023-04-22T01:45:07.939Z,4.35
2023-04-22T01:47:35.927Z,4.25
2023-04-22T01:50:04.553Z,3.78
2023-04-22T01:52:33.087Z,4.10
2023-04-22T01:55:02.866Z,8.38
2023-04-22T01:57:31.053Z,3.83
2023-04-22T01:59:59.183Z,3.35
2023-04-22T02:02:27.356Z,4.87
2023-04-22T02:04:55.750Z,5.75
2023-04-22T02:07:23.909Z,4.47
2023-04-22T02:09:51.942Z,5.62
2023-04-22T02:12:20.171Z,3.92
2023-04-22T02:14:48.170Z,4.97
2023-04-22T02:17:36.322Z,4.60
2023-04-22T02:20:05.608Z,3.60
2023-04-22T02:22:36.341Z,3.80
2023-04-22T02:25:05.179Z,4.62
2023-04-22T02:27:34.089Z,4.62
2023-04-22T02:30:01.959Z,5.35
2023-04-22T02:32:31.987Z,3.00
2023-04-22T02:35:00.403Z,4.18
2023-04-22T02:37:28.330Z,6.47
2023-04-22T02:39:56.249Z,4.85
2023-04-22T02:42:24.416Z,4.97
2023-04-22T02:44:52.354Z,3.10
2023-04-22T02:47:21.531Z,7.80
2023-04-22T02:49:49.840Z,3.70
2023-04-22T02:52:17.848Z,6.55
2023-04-22T02:54:45.813Z,4.82
2023-04-22T02:57:14.155Z,3.33
2023-04-22T02:59:42.445Z,5.75
2023-04-22T03:02:11.709Z,6.85
2023-04-22T03:04:41.892Z,5.47
2023-04-22T03:07:09.858Z,5.78
2023-04-22T03:09:37.970Z,5.45
2023-04-22T03:12:09.514Z,5.07
2023-04-22T03:14:37.381Z,6.82
2023-04-22T03:17:05.774Z,3.30
2023-04-22T03:19:34.136Z,5.35
2023-04-22T03:22:02.565Z,3.37
2023-04-22T03:24:30.522Z,6.70
2023-04-22T03:27:04.390Z,3.95
2023-04-22T03:29:32.769Z,4.90
2023-04-22T03:32:01.024Z,3.37
2023-04-22T03:34:29.151Z,4.43
2023-04-22T03:36:57.345Z,4.70
2023-04-22T03:39:26.504Z,5.53
2023-04-22T03:41:54.603Z,3.70
2023-04-22T03:44:22.699Z,5.07
2023-04-22T03:46:51.073Z,4.68
2023-04-22T03:49:19.819Z,4.25
2023-04-22T03:51:47.733Z,3.67
2023-04-22T03:54:16.822Z,3.97
2023-04-22T03:56:58.318Z,5.35
2023-04-22T03:59:27.239Z,4.30
2023-04-22T04:01:55.896Z,3.40
2023-04-22T04:04:25.328Z,3.65
2023-04-22T04:06:53.894Z,7.30
2023-04-22T04:09:21.855Z,3.67
2023-04-22T04:11:50.081Z,3.65
2023-04-22T04:14:18.541Z,5.65
2023-04-22T04:16:47.174Z,3.37
2023-04-22T04:19:16.161Z,4.45
2023-04-22T04:21:44.399Z,4.60
2023-04-22T04:24:12.321Z,2.85
2023-04-22T04:26:41.964Z,3.70
2023-04-22T04:29:10.388Z,3.37
2023-04-22T04:31:38.866Z,4.45
2023-04-22T04:34:08.483Z,4.43
2023-04-22T04:36:37.101Z,3.50
2023-04-22T04:39:07.125Z,6.65
2023-04-22T04:41:35.933Z,8.40
2023-04-22T04:44:04.291Z,10.60
2023-04-22T04:46:35.028Z,9.68
2023-04-22T04:49:04.923Z,4.22
2023-04-22T04:51:33.570Z,7.97
2023-04-22T04:54:01.959Z,6.10
2023-04-22T04:56:32.097Z,6.57
2023-04-22T04:59:02.003Z,6.45
2023-04-22T05:01:30.372Z,5.10
2023-04-22T05:04:00.073Z,13.57
2023-04-22T05:06:28.363Z,6.15
2023-04-22T05:08:57.592Z,4.57
2023-04-22T05:11:25.746Z,4.10
2023-04-22T05:13:54.248Z,2.08
2023-04-22T05:16:23.286Z,2.22
2023-04-22T05:18:51.230Z,3.30
2023-04-22T05:21:20.622Z,5.28
2023-04-22T05:23:49.693Z,2.55
2023-04-22T05:26:17.951Z,1.85
2023-04-22T05:28:46.830Z,2.42
2023-04-22T05:31:16.648Z,3.30
2023-04-22T05:33:44.624Z,3.45
2023-04-22T05:36:12.361Z,5.93
2023-04-22T05:38:41.447Z,2.60
2023-04-22T05:41:09.426Z,3.70
2023-04-22T05:43:37.301Z,4.57
2023-04-22T05:46:06.915Z,1.92
2023-04-22T05:48:35.671Z,1.58
2023-04-22T05:51:04.448Z,2.17
2023-04-22T05:53:33.488Z,2.55
2023-04-22T05:56:02.173Z,1.98
2023-04-22T05:58:30.098Z,4.80
2023-04-22T06:00:58.464Z,5.20
2023-04-22T06:03:29.457Z,1.85
2023-04-22T06:05:58.257Z,4.20
2023-04-22T06:08:26.339Z,2.05
2023-04-22T06:10:54.682Z,2.00
2023-04-22T06:13:23.163Z,2.90
2023-04-22T06:15:52.375Z,1.42
2023-04-22T06:18:21.118Z,1.15
2023-04-22T06:20:49.358Z,1.35
2023-04-22T06:23:17.233Z,2.17
2023-04-22T06:25:46.295Z,1.70
2023-04-22T06:28:22.673Z,1.48
2023-04-22T06:30:51.611Z,1.40
2023-04-22T06:33:22.666Z,2.70
2023-04-22T06:35:51.697Z,3.03
2023-04-22T06:38:19.777Z,1.10
2023-04-22T06:40:48.541Z,1.20
2023-04-22T06:43:17.595Z,2.45
2023-04-22T06:45:57.892Z,1.25
2023-04-22T06:48:28.268Z,1.30
2023-04-22T06:50:57.794Z,1.95
2023-04-22T06:53:27.974Z,1.00
2023-04-22T06:55:56.234Z,2.62
2023-04-22T06:58:24.135Z,1.83
2023-04-22T07:00:52.252Z,1.35
2023-04-22T07:03:21.012Z,1.65
2023-04-22T07:05:55.857Z,3.42
2023-04-22T07:08:24.832Z,3.00
2023-04-22T07:10:53.141Z,2.67
2023-04-22T07:13:22.037Z,2.22
2023-04-22T07:15:50.496Z,3.15
2023-04-22T07:18:18.619Z,1.95
2023-04-22T07:20:46.629Z,1.33
2023-04-22T07:23:14.960Z,1.02
2023-04-22T07:25:42.968Z,1.23
2023-04-22T07:28:11.019Z,3.20
2023-04-22T07:30:39.491Z,1.55
2023-04-22T07:33:07.611Z,1.67
2023-04-22T07:35:35.625Z,0.60
2023-04-22T07:38:03.998Z,1.87
2023-04-22T07:40:31.922Z,3.62
2023-04-22T07:42:59.897Z,7.15
2023-04-22T07:45:28.370Z,3.45
2023-04-22T07:47:56.686Z,3.03
2023-04-22T07:50:24.747Z,1.00
2023-04-22T07:52:53.127Z,1.75
2023-04-22T07:55:21.146Z,1.92
2023-04-22T07:57:49.139Z,1.75
2023-04-22T08:00:17.958Z,2.25
2023-04-22T08:02:47.896Z,1.30
2023-04-22T08:05:16.396Z,1.45
2023-04-22T08:07:44.346Z,2.62
2023-04-22T08:10:12.941Z,5.47
2023-04-22T08:12:41.041Z,2.33
2023-04-22T08:15:09.592Z,6.53
2023-04-22T08:17:38.001Z,5.22
2023-04-22T08:20:08.196Z,1.40
2023-04-22T08:22:37.027Z,1.73
2023-04-22T08:25:09.275Z,5.30
2023-04-22T08:27:38.588Z,3.70
2023-04-22T08:30:07.876Z,5.65
2023-04-22T08:32:36.293Z,4.40
2023-04-22T08:35:05.526Z,4.70
2023-04-22T08:37:35.136Z,3.60
2023-04-22T08:40:05.220Z,4.87
2023-04-22T08:42:34.128Z,2.75
2023-04-22T08:45:04.779Z,1.12
2023-04-22T08:47:35.441Z,1.62
2023-04-22T08:50:04.825Z,1.20
2023-04-22T08:52:33.473Z,2.20
2023-04-22T08:55:01.446Z,1.73
2023-04-22T08:57:33.098Z,4.05
2023-04-22T09:00:01.433Z,3.87
2023-04-22T09:02:34.509Z,3.40
2023-04-22T09:05:09.520Z,2.50
2023-04-22T09:07:38.976Z,2.22
2023-04-22T09:10:08.716Z,3.80
2023-04-22T09:12:40.644Z,1.23
2023-04-22T09:15:10.562Z,1.62
2023-04-22T09:17:39.529Z,1.27
2023-04-22T09:20:09.209Z,8.27
2023-04-22T09:22:49.292Z,2.33
2023-04-22T09:25:21.890Z,1.55
2023-04-22T09:27:55.307Z,0.60
2023-04-22T09:30:35.212Z,4.25
2023-04-22T09:33:06.790Z,5.32
2023-04-22T09:35:40.182Z,3.97
2023-04-22T09:38:11.290Z,3.45
2023-04-22T09:40:43.426Z,2.08
2023-04-22T09:43:12.427Z,5.12
2023-04-22T09:45:42.369Z,7.78
2023-04-22T09:48:19.326Z,2.15
2023-04-22T09:50:50.208Z,3.92
2023-04-22T09:53:20.445Z,14.75
2023-04-22T09:55:51.457Z,6.75
2023-04-22T09:58:21.304Z,5.18
2023-04-22T10:00:52.459Z,2.75
2023-04-22T10:03:21.192Z,1.90
2023-04-22T10:05:49.393Z,1.75
2023-04-22T10:08:17.882Z,1.40
2023-04-22T10:10:46.887Z,3.50
2023-04-22T10:13:15.075Z,5.12
2023-04-22T10:16:09.528Z,6.30
2023-04-22T10:18:40.189Z,4.03
2023-04-22T10:21:08.376Z,4.80
2023-04-22T10:23:36.280Z,1.62
2023-04-22T10:26:06.296Z,22.17
2023-04-22T10:28:34.293Z,1.48
2023-04-22T10:31:08.014Z,4.28
2023-04-22T10:33:36.952Z,3.58
2023-04-22T10:36:20.506Z,2.72
2023-04-22T10:38:55.094Z,2.45
2023-04-22T10:41:34.657Z,2.67
2023-04-22T10:44:08.432Z,1.98
2023-04-22T10:46:40.412Z,3.37
2023-04-22T10:49:20.891Z,1.75
2023-04-22T10:51:51.093Z,3.30
2023-04-22T10:54:37.886Z,1.98
2023-04-22T10:57:19.665Z,2.30
2023-04-22T10:59:53.296Z,3.87
2023-04-22T11:02:23.198Z,0.90
2023-04-22T11:04:54.914Z,1.95
2023-04-22T11:07:30.482Z,1.45
2023-04-22T11:10:08.290Z,2.62
2023-04-22T11:12:36.314Z,2.30
2023-04-22T11:15:11.298Z,4.35
2023-04-22T11:17:42.986Z,5.57
2023-04-22T11:20:13.228Z,1.75
2023-04-22T11:22:52.458Z,3.10
2023-04-22T11:25:25.065Z,3.92
2023-04-22T11:27:54.779Z,4.60
2023-04-22T11:30:25.856Z,7.35
2023-04-22T11:32:56.682Z,9.73
2023-04-22T11:35:34.615Z,9.80
2023-04-22T11:38:04.585Z,4.82
2023-04-22T11:40:38.852Z,5.45
2023-04-22T11:43:09.742Z,4.07
2023-04-22T11:45:40.260Z,4.78
2023-04-22T11:48:13.358Z,4.12
2023-04-22T11:50:45.061Z,4.78
2023-04-22T11:53:17.606Z,4.80
2023-04-22T11:55:49.092Z,4.95
2023-04-22T11:58:25.377Z,7.35
2023-04-22T12:00:55.119Z,3.40
2023-04-22T12:03:27.038Z,3.03
2023-04-22T12:05:56.417Z,3.78
2023-04-22T12:08:31.961Z,4.95
2023-04-22T12:11:02.586Z,3.83
2023-04-22T12:13:42.910Z,1.90
2023-04-22T12:16:13.104Z,2.92
2023-04-22T12:18:52.400Z,13.55
2023-04-22T12:21:25.124Z,10.07
2023-04-22T12:23:56.276Z,4.50
2023-04-22T12:26:27.578Z,3.62
2023-04-22T12:28:58.658Z,3.53
2023-04-22T12:31:27.731Z,2.10
2023-04-22T12:34:00.462Z,3.42
2023-04-22T12:36:29.441Z,4.75
2023-04-22T12:38:58.020Z,4.53
2023-04-22T12:41:26.292Z,3.83
2023-04-22T12:43:55.770Z,3.92
2023-04-22T12:46:24.509Z,6.00
2023-04-22T12:48:52.642Z,4.80
2023-04-22T12:51:20.959Z,5.10
2023-04-22T12:53:49.410Z,5.12
2023-04-22T12:56:17.704Z,15.52
2023-04-22T12:58:45.838Z,7.07
2023-04-22T13:01:14.949Z,13.98
2023-04-22T13:03:44.049Z,3.75
2023-04-22T13:06:12.496Z,3.35
2023-04-22T13:08:40.843Z,1.77
2023-04-22T13:11:09.282Z,2.67
2023-04-22T13:13:37.390Z,3.47
2023-04-22T13:16:06.288Z,4.12
2023-04-22T13:18:34.659Z,5.20
2023-04-22T13:21:02.795Z,5.47
2023-04-22T13:23:31.285Z,6.80
2023-04-22T13:25:59.110Z,4.95
2023-04-22T13:28:27.825Z,4.60
2023-04-22T13:30:56.195Z,4.93
2023-04-22T13:33:24.322Z,4.12
2023-04-22T13:35:55.092Z,3.92
2023-04-22T13:38:23.791Z,2.37
2023-04-22T13:40:51.815Z,2.12
2023-04-22T13:43:19.735Z,2.90
2023-04-22T13:45:48.937Z,3.97
2023-04-22T13:48:17.279Z,1.30
2023-04-22T13:50:45.905Z,2.05
2023-04-22T13:53:14.574Z,2.80
2023-04-22T13:55:43.653Z,3.17
2023-04-22T13:58:11.806Z,2.15
2023-04-22T14:00:40.139Z,5.20
2023-04-22T14:03:08.724Z,4.15
2023-04-22T14:05:37.310Z,3.92
2023-04-22T14:08:05.453Z,3.97
2023-04-22T14:10:33.733Z,7.82
2023-04-22T14:13:01.833Z,4.28
2023-04-22T14:15:29.765Z,3.28
2023-04-22T14:17:58.204Z,11.02
2023-04-22T14:20:26.396Z,5.15
2023-04-22T14:22:54.272Z,6.65
2023-04-22T14:25:22.486Z,4.35
2023-04-22T14:27:50.470Z,2.20
2023-04-22T14:30:18.795Z,4.18
2023-04-22T14:32:47.243Z,3.22
2023-04-22T14:35:15.468Z,2.62
2023-04-22T14:37:45.399Z,2.53
2023-04-22T14:40:13.996Z,5.35
2023-04-22T14:42:42.169Z,6.37
2023-04-22T14:45:10.633Z,4.15
2023-04-22T14:47:38.968Z,9.40
2023-04-22T14:50:07.269Z,7.18
2023-04-22T14:52:35.307Z,5.30
2023-04-22T14:55:15.528Z,8.63
2023-04-22T14:57:49.729Z,4.18
2023-04-22T15:00:18.537Z,2.58
2023-04-22T15:02:46.896Z,3.37
2023-04-22T15:05:15.524Z,2.80
2023-04-22T15:07:46.527Z,5.35
2023-04-22T15:10:17.162Z,3.58
2023-04-22T15:12:47.078Z,6.37
2023-04-22T15:15:16.371Z,4.30
2023-04-22T15:17:45.018Z,2.37
2023-04-22T15:20:14.343Z,3.05
2023-04-22T15:22:42.581Z,3.20
2023-04-22T15:25:14.737Z,2.75
2023-04-22T15:27:44.698Z,5.07
2023-04-22T15:30:12.881Z,5.72
2023-04-22T15:32:41.424Z,5.03
2023-04-22T15:35:10.473Z,2.60
2023-04-22T15:37:39.684Z,5.32
2023-04-22T15:40:08.411Z,12.35
2023-04-22T15:42:40.090Z,15.15
2023-04-22T15:45:08.879Z,13.70
2023-04-22T15:47:37.679Z,28.17
2023-04-22T15:50:06.801Z,14.32
2023-04-22T15:52:36.008Z,18.30
2023-04-22T15:55:05.373Z,25.90
2023-04-22T15:57:37.212Z,13.15
2023-04-22T16:00:12.531Z,37.95
2023-04-22T16:02:44.945Z,30.90
2023-04-22T16:05:15.055Z,19.77
2023-04-22T16:07:43.238Z,25.02
2023-04-22T16:10:11.393Z,25.45
2023-04-22T16:12:39.856Z,21.98
2023-04-22T16:15:08.683Z,19.27
2023-04-22T16:17:38.182Z,14.65
2023-04-22T16:20:07.806Z,16.92
2023-04-22T16:22:35.763Z,16.98
2023-04-22T16:25:04.537Z,11.88
2023-04-22T16:27:32.953Z,21.87
2023-04-22T16:30:01.101Z,20.00
2023-04-22T16:32:29.989Z,14.52
2023-04-22T16:34:58.234Z,26.10
2023-04-22T16:37:27.451Z,19.37
2023-04-22T16:39:55.828Z,16.15
2023-04-22T16:42:24.230Z,27.17
2023-04-22T16:44:52.354Z,19.00
2023-04-22T16:47:20.687Z,34.55
2023-04-22T16:49:49.174Z,52.40
2023-04-22T16:52:17.536Z,59.42
2023-04-22T16:54:46.141Z,67.57
2023-04-22T16:57:14.373Z,60.58
2023-04-22T16:59:42.536Z,47.33
2023-04-22T17:02:11.003Z,39.67
2023-04-22T17:04:39.737Z,25.80
2023-04-22T17:07:07.750Z,49.75
2023-04-22T17:09:35.804Z,60.03
2023-04-22T17:12:04.350Z,51.45
2023-04-22T17:14:32.512Z,59.25
2023-04-22T17:17:00.572Z,76.18
2023-04-22T17:19:28.984Z,90.97
2023-04-22T17:21:57.235Z,91.57
2023-04-22T17:24:25.506Z,113.05
2023-04-22T17:26:53.776Z,110.40
2023-04-22T17:29:21.973Z,94.80
2023-04-22T17:31:51.113Z,84.72
2023-04-22T17:34:19.485Z,259.67
2023-04-22T17:36:47.677Z,81.22
2023-04-22T17:39:15.777Z,86.40
2023-04-22T17:41:44.706Z,75.00
2023-04-22T17:44:12.700Z,71.45
2023-04-22T17:46:41.939Z,75.12
2023-04-22T17:49:10.289Z,73.65
2023-04-22T17:51:38.287Z,72.68
2023-04-22T17:54:07.102Z,72.05
2023-04-22T18:02:06.684Z,68.70
2023-04-22T18:07:20.061Z,72.12
2023-04-22T18:09:49.911Z,54.05
2023-04-22T18:12:18.045Z,63.40
2023-04-22T18:14:46.050Z,67.12
2023-04-22T18:20:13.783Z,54.90
2023-04-22T18:22:49.315Z,54.70
2023-04-22T18:25:17.355Z,55.65
2023-04-22T18:27:47.918Z,37.60
2023-04-22T18:30:16.043Z,40.83
2023-04-22T18:32:44.045Z,45.72
2023-04-22T18:35:12.340Z,67.60
2023-04-22T18:37:40.285Z,177.57
2023-04-22T18:40:09.073Z,126.55
2023-04-22T18:42:38.007Z,105.53
2023-04-22T18:45:06.829Z,148.90
2023-04-22T18:47:35.407Z,133.07
2023-04-22T18:50:04.631Z,141.82
2023-04-22T18:52:33.507Z,112.12
2023-04-22T18:55:01.580Z,100.28
2023-04-22T18:57:33.207Z,77.37
2023-04-22T19:00:01.264Z,100.05
2023-04-22T19:02:38.450Z,83.78
2023-04-22T19:05:09.051Z,96.93
2023-04-22T19:07:38.605Z,83.97
2023-04-22T19:10:07.943Z,79.75
2023-04-22T19:12:36.600Z,81.43
2023-04-22T19:15:05.443Z,78.50
2023-04-22T19:17:35.241Z,76.40
2023-04-22T19:20:05.424Z,76.32
2023-04-22T19:22:40.648Z,81.43
2023-04-22T19:25:09.230Z,77.68
2023-04-22T19:27:37.637Z,78.97
2023-04-22T19:30:07.282Z,75.10
2023-04-22T19:32:35.951Z,79.05
2023-04-22T19:35:06.508Z,73.32
2023-04-22T19:37:34.438Z,85.30
2023-04-22T19:40:02.298Z,78.87
2023-04-22T19:42:31.534Z,90.28
2023-04-22T19:45:00.009Z,85.18
2023-04-22T19:47:28.316Z,83.40
2023-04-22T19:49:57.598Z,80.35
2023-04-22T19:52:25.962Z,65.22
2023-04-22T19:54:59.719Z,48.70
2023-04-22T19:57:28.048Z,61.05
2023-04-22T19:59:56.262Z,60.22
2023-04-22T20:02:24.475Z,57.42
2023-04-22T20:04:53.741Z,57.88
2023-04-22T20:07:21.596Z,57.95
2023-04-22T20:09:51.346Z,43.90
2023-04-22T20:12:20.333Z,53.67
2023-04-22T20:14:49.475Z,54.30
2023-04-22T20:17:17.498Z,52.25
2023-04-22T20:19:46.130Z,67.37
2023-04-22T20:22:17.290Z,88.03
2023-04-22T20:24:46.095Z,89.18
2023-04-22T20:27:15.257Z,91.55
2023-04-22T20:29:44.485Z,102.45
2023-04-22T20:32:13.004Z,94.07
2023-04-22T20:34:41.371Z,72.22
2023-04-22T20:37:12.595Z,87.20
2023-04-22T20:39:49.352Z,88.60
2023-04-22T20:42:18.863Z,85.03
2023-04-22T20:44:47.361Z,62.45
2023-04-22T20:47:16.668Z,56.75
2023-04-22T20:49:45.047Z,54.92
2023-04-22T20:52:13.535Z,51.85
2023-04-22T20:54:41.469Z,37.88
2023-04-22T20:57:09.497Z,38.63
2023-04-22T20:59:37.775Z,35.03
2023-04-22T21:02:07.196Z,37.50
2023-04-22T21:04:35.426Z,32.28
2023-04-22T21:07:14.656Z,45.55
2023-04-22T21:09:43.571Z,50.47
2023-04-22T21:12:12.509Z,50.47
2023-04-22T21:14:43.115Z,57.28
2023-04-22T21:17:21.301Z,52.42
2023-04-22T21:19:51.305Z,55.70
2023-04-22T21:22:23.172Z,54.25
2023-04-22T21:24:52.253Z,56.50
2023-04-22T21:27:22.513Z,46.72
2023-04-22T21:29:50.766Z,36.08
2023-04-22T21:32:20.857Z,61.78
2023-04-22T21:34:51.925Z,50.67
2023-04-22T21:37:20.546Z,48.58
2023-04-22T21:39:48.366Z,39.33
2023-04-22T21:42:16.559Z,38.97
2023-04-22T21:44:50.273Z,31.00
2023-04-22T21:47:18.695Z,48.63
2023-04-22T21:49:47.375Z,39.38
2023-04-22T21:52:15.370Z,38.35
2023-04-22T21:54:44.390Z,25.65
2023-04-22T21:57:12.691Z,32.92
2023-04-22T21:59:41.060Z,37.88
2023-04-22T22:02:09.875Z,37.38
2023-04-22T22:04:38.292Z,40.95
2023-04-22T22:07:06.912Z,30.55
2023-04-22T22:09:34.944Z,35.45
2023-04-22T22:12:03.256Z,48.47
2023-04-22T22:14:31.118Z,32.00
2023-04-22T22:16:59.478Z,33.75
2023-04-22T22:19:31.050Z,35.55
2023-04-22T22:21:59.345Z,35.33
2023-04-22T22:24:30.431Z,31.48
2023-04-22T22:26:59.116Z,32.25
2023-04-22T22:29:27.880Z,32.78
2023-04-22T22:31:59.034Z,31.77
2023-04-22T22:34:29.719Z,33.50
2023-04-22T22:36:58.652Z,32.90
2023-04-22T22:39:26.668Z,23.98
2023-04-22T22:41:55.845Z,28.20
2023-04-22T22:44:23.818Z,31.52
2023-04-22T22:46:51.876Z,26.17
2023-04-22T22:49:20.245Z,19.40
2023-04-22T22:51:48.476Z,22.17
2023-04-22T22:54:16.524Z,28.17
2023-04-22T22:56:44.883Z,32.75
2023-04-22T22:59:12.708Z,22.62
2023-04-22T23:01:41.813Z,21.83
2023-04-22T23:04:11.121Z,23.62
2023-04-22T23:06:39.218Z,24.12
2023-04-22T23:09:07.887Z,18.98
2023-04-22T23:11:36.170Z,18.77
2023-04-22T23:14:06.736Z,26.60
2023-04-22T23:16:35.463Z,27.80
2023-04-22T23:19:04.051Z,27.60
2023-04-22T23:21:32.480Z,29.73
2023-04-22T23:24:01.657Z,22.42
2023-04-22T23:26:30.109Z,24.58
2023-04-22T23:28:58.630Z,20.02
2023-04-22T23:31:27.743Z,30.58
2023-04-22T23:33:57.425Z,22.75
2023-04-22T23:36:26.840Z,21.33
2023-04-22T23:38:57.744Z,27.42
2023-04-22T23:41:26.304Z,25.77
2023-04-22T23:43:54.179Z,27.00
2023-04-22T23:46:22.489Z,26.33
2023-04-22T23:48:50.858Z,22.33
2023-04-22T23:51:18.820Z,25.50
2023-04-22T23:53:47.184Z,22.13
2023-04-22T23:56:20.779Z,21.83
2023-04-22T23:58:49.955Z,21.00
